<?xml version='1.0' encoding='utf-8'?>
<gpx xmlns="http://www.topografix.com/GPX/1/1" creator="HOLUX ezTour Plus" version="1.1">
<metadata>
<link href="http://www.holux.com"><text>HOLUX Technology, Inc.</text></link>
<time>2012-08-01T18:52:39Z</time></metadata>
<trk>
<name>raw11</name>
<trkseg>
<trkpt lat="63.830776215" lon="-21.677864075">
<ele>7.1</ele>
<time>2012-07-28T12:39:06Z</time>
<speed>2.480000</speed>
<extensions>
<speed>2.5</speed>
<temp>0.00</temp>
<bpm>0</bpm>
<rpm>0.00</rpm>
</extensions>
</trkpt>
<trkpt lat="63.830917358" lon="-21.678745270">
<ele>7.0</ele>
<time>2012-07-28T12:39:26Z</time>
<speed>2.510000</speed>
<extensions>
<speed>2.5</speed>
<temp>0.00</temp>
<bpm>0</bpm>
<rpm>0.00</rpm>
</extensions>
</trkpt>
<trkpt lat="63.830768585" lon="-21.678983688">
<ele>6.8</ele>
<time>2012-07-28T12:39:31Z</time>
<speed>2.440000</speed>
<extensions>
<speed>2.4</speed>
<temp>0.00</temp>
<bpm>0</bpm>
<rpm>0.00</rpm>
</extensions>
</trkpt>
<trkpt lat="63.833530426" lon="-21.697612762">
<ele>2.9</ele>
<time>2012-07-28T12:45:01Z</time>
<speed>3.230000</speed>
<extensions>
<speed>3.2</speed>
<temp>0.00</temp>
<bpm>0</bpm>
<rpm>0.00</rpm>
</extensions>
</trkpt>
<trkpt lat="63.834144592" lon="-21.700700760">
<ele>3.2</ele>
<time>2012-07-28T12:45:46Z</time>
<speed>4.450000</speed>
<extensions>
<speed>4.5</speed>
<temp>0.00</temp>
<bpm>0</bpm>
<rpm>0.00</rpm>
</extensions>
</trkpt>
<trkpt lat="63.835681915" lon="-21.705224991">
<ele>3.7</ele>
<time>2012-07-28T12:52:31Z</time>
<extensions>
<speed>0.0</speed>
<temp>0.00</temp>
<bpm>0</bpm>
<rpm>0.00</rpm>
</extensions>
</trkpt>
<trkpt lat="63.835441589" lon="-21.706005096">
<ele>2.8</ele>
<time>2012-07-28T13:03:51Z</time>
<speed>0.040000</speed>
<extensions>
<speed>0.0</speed>
<temp>0.00</temp>
<bpm>0</bpm>
<rpm>0.00</rpm>
</extensions>
</trkpt>
<trkpt lat="63.835563660" lon="-21.705469131">
<ele>3.3</ele>
<time>2012-07-28T13:04:16Z</time>
<speed>3.120000</speed>
<extensions>
<speed>3.1</speed>
<temp>0.00</temp>
<bpm>0</bpm>
<rpm>0.00</rpm>
</extensions>
</trkpt>
<trkpt lat="63.835464478" lon="-21.704809189">
<ele>3.1</ele>
<time>2012-07-28T13:04:26Z</time>
<speed>3.530000</speed>
<extensions>
<speed>3.5</speed>
<temp>0.00</temp>
<bpm>0</bpm>
<rpm>0.00</rpm>
</extensions>
</trkpt>
<trkpt lat="63.834117889" lon="-21.700521469">
<ele>3.2</ele>
<time>2012-07-28T13:05:36Z</time>
<speed>4.340000</speed>
<extensions>
<speed>4.3</speed>
<temp>0.00</temp>
<bpm>0</bpm>
<rpm>0.00</rpm>
</extensions>
</trkpt>
<trkpt lat="63.833522797" lon="-21.697376251">
<ele>3.0</ele>
<time>2012-07-28T13:06:21Z</time>
<speed>4.110000</speed>
<extensions>
<speed>4.1</speed>
<temp>0.00</temp>
<bpm>0</bpm>
<rpm>0.00</rpm>
</extensions>
</trkpt>
<trkpt lat="63.830436707" lon="-21.676454544">
<ele>7.4</ele>
<time>2012-07-28T13:11:01Z</time>
<speed>3.620000</speed>
<extensions>
<speed>3.6</speed>
<temp>0.00</temp>
<bpm>0</bpm>
<rpm>0.00</rpm>
</extensions>
</trkpt>
<trkpt lat="63.830505371" lon="-21.676101685">
<ele>7.4</ele>
<time>2012-07-28T13:11:06Z</time>
<speed>3.820000</speed>
<extensions>
<speed>3.8</speed>
<temp>0.00</temp>
<bpm>0</bpm>
<rpm>0.00</rpm>
</extensions>
</trkpt>
<trkpt lat="63.831504822" lon="-21.675121307">
<ele>8.6</ele>
<time>2012-07-28T13:11:46Z</time>
<speed>2.740000</speed>
<extensions>
<speed>2.7</speed>
<temp>0.00</temp>
<bpm>0</bpm>
<rpm>0.00</rpm>
</extensions>
</trkpt>
<trkpt lat="63.835651398" lon="-21.671758652">
<ele>14.3</ele>
<time>2012-07-28T13:14:56Z</time>
<speed>1.360000</speed>
<extensions>
<speed>1.4</speed>
<temp>0.00</temp>
<bpm>0</bpm>
<rpm>0.00</rpm>
</extensions>
</trkpt>
<trkpt lat="63.835853577" lon="-21.671510696">
<ele>15.0</ele>
<time>2012-07-28T13:15:16Z</time>
<speed>1.530000</speed>
<extensions>
<speed>1.5</speed>
<temp>0.00</temp>
<bpm>0</bpm>
<rpm>0.00</rpm>
</extensions>
</trkpt>
<trkpt lat="63.835811615" lon="-21.670570374">
<ele>15.6</ele>
<time>2012-07-28T13:16:11Z</time>
<speed>0.580000</speed>
<extensions>
<speed>0.6</speed>
<temp>0.00</temp>
<bpm>0</bpm>
<rpm>0.00</rpm>
</extensions>
</trkpt>
<trkpt lat="63.836463928" lon="-21.670505524">
<ele>15.1</ele>
<time>2012-07-28T13:18:06Z</time>
<speed>1.300000</speed>
<extensions>
<speed>1.3</speed>
<temp>0.00</temp>
<bpm>0</bpm>
<rpm>0.00</rpm>
</extensions>
</trkpt>
<trkpt lat="63.836521149" lon="-21.670679092">
<ele>14.8</ele>
<time>2012-07-28T13:18:16Z</time>
<speed>0.560000</speed>
<extensions>
<speed>0.6</speed>
<temp>0.00</temp>
<bpm>0</bpm>
<rpm>0.00</rpm>
</extensions>
</trkpt>
<trkpt lat="63.836174011" lon="-21.671089172">
<ele>16.2</ele>
<time>2012-07-28T13:18:51Z</time>
<speed>1.840000</speed>
<extensions>
<speed>1.8</speed>
<temp>0.00</temp>
<bpm>0</bpm>
<rpm>0.00</rpm>
</extensions>
</trkpt>
<trkpt lat="63.836154938" lon="-21.671480179">
<ele>16.1</ele>
<time>2012-07-28T13:19:01Z</time>
<speed>1.830000</speed>
<extensions>
<speed>1.8</speed>
<temp>0.00</temp>
<bpm>0</bpm>
<rpm>0.00</rpm>
</extensions>
</trkpt>
<trkpt lat="63.837505341" lon="-21.675783157">
<ele>16.9</ele>
<time>2012-07-28T13:20:21Z</time>
<speed>3.530000</speed>
<extensions>
<speed>3.5</speed>
<temp>0.00</temp>
<bpm>0</bpm>
<rpm>0.00</rpm>
</extensions>
</trkpt>
<trkpt lat="63.844223022" lon="-21.691944122">
<ele>13.4</ele>
<time>2012-07-28T13:26:01Z</time>
<speed>3.700000</speed>
<extensions>
<speed>3.7</speed>
<temp>0.00</temp>
<bpm>0</bpm>
<rpm>0.00</rpm>
</extensions>
</trkpt>
<trkpt lat="63.846584320" lon="-21.698604584">
<ele>9.2</ele>
<time>2012-07-28T13:27:56Z</time>
<speed>3.240000</speed>
<extensions>
<speed>3.2</speed>
<temp>0.00</temp>
<bpm>0</bpm>
<rpm>0.00</rpm>
</extensions>
</trkpt>
<trkpt lat="63.850074768" lon="-21.709711075">
<ele>3.6</ele>
<time>2012-07-28T13:31:41Z</time>
<speed>2.970000</speed>
<extensions>
<speed>3.0</speed>
<temp>0.00</temp>
<bpm>0</bpm>
<rpm>0.00</rpm>
</extensions>
</trkpt>
<trkpt lat="63.852401733" lon="-21.715936661">
<ele>1.1</ele>
<time>2012-07-28T13:34:06Z</time>
<speed>3.010000</speed>
<extensions>
<speed>3.0</speed>
<temp>0.00</temp>
<bpm>0</bpm>
<rpm>0.00</rpm>
</extensions>
</trkpt>
<trkpt lat="63.856060028" lon="-21.723680496">
<ele>3.3</ele>
<time>2012-07-28T13:37:26Z</time>
<speed>2.950000</speed>
<extensions>
<speed>2.9</speed>
<temp>0.00</temp>
<bpm>0</bpm>
<rpm>0.00</rpm>
</extensions>
</trkpt>
<trkpt lat="63.861770630" lon="-21.733150482">
<ele>4.0</ele>
<time>2012-07-28T13:43:06Z</time>
<speed>2.250000</speed>
<extensions>
<speed>2.3</speed>
<temp>0.00</temp>
<bpm>0</bpm>
<rpm>0.00</rpm>
</extensions>
</trkpt>
<trkpt lat="63.864215851" lon="-21.739006042">
<ele>3.9</ele>
<time>2012-07-28T13:45:41Z</time>
<speed>2.470000</speed>
<extensions>
<speed>2.5</speed>
<temp>0.00</temp>
<bpm>0</bpm>
<rpm>0.00</rpm>
</extensions>
</trkpt>
<trkpt lat="63.865642548" lon="-21.743896484">
<ele>4.5</ele>
<time>2012-07-28T13:47:41Z</time>
<speed>2.490000</speed>
<extensions>
<speed>2.5</speed>
<temp>0.00</temp>
<bpm>0</bpm>
<rpm>0.00</rpm>
</extensions>
</trkpt>
<trkpt lat="63.867515564" lon="-21.752052307">
<ele>5.5</ele>
<time>2012-07-28T13:50:26Z</time>
<speed>2.980000</speed>
<extensions>
<speed>3.0</speed>
<temp>0.00</temp>
<bpm>0</bpm>
<rpm>0.00</rpm>
</extensions>
</trkpt>
<trkpt lat="63.868957520" lon="-21.760368347">
<ele>6.0</ele>
<time>2012-07-28T13:53:31Z</time>
<speed>2.490000</speed>
<extensions>
<speed>2.5</speed>
<temp>0.00</temp>
<bpm>0</bpm>
<rpm>0.00</rpm>
</extensions>
</trkpt>
<trkpt lat="63.870182037" lon="-21.770095825">
<ele>5.3</ele>
<time>2012-07-28T13:56:36Z</time>
<speed>2.310000</speed>
<extensions>
<speed>2.3</speed>
<temp>0.00</temp>
<bpm>0</bpm>
<rpm>0.00</rpm>
</extensions>
</trkpt>
<trkpt lat="63.870922089" lon="-21.779409409">
<ele>12.3</ele>
<time>2012-07-28T14:08:46Z</time>
<speed>0.020000</speed>
<extensions>
<speed>0.0</speed>
<temp>0.00</temp>
<bpm>0</bpm>
<rpm>0.00</rpm>
</extensions>
</trkpt>
<trkpt lat="63.870738983" lon="-21.783092499">
<ele>13.8</ele>
<time>2012-07-28T14:14:16Z</time>
<speed>3.880000</speed>
<extensions>
<speed>3.9</speed>
<temp>0.00</temp>
<bpm>0</bpm>
<rpm>0.00</rpm>
</extensions>
</trkpt>
<trkpt lat="63.869773865" lon="-21.793680191">
<ele>11.1</ele>
<time>2012-07-28T14:16:26Z</time>
<speed>3.540000</speed>
<extensions>
<speed>3.5</speed>
<temp>0.00</temp>
<bpm>0</bpm>
<rpm>0.00</rpm>
</extensions>
</trkpt>
<trkpt lat="63.869869232" lon="-21.797767639">
<ele>11.7</ele>
<time>2012-07-28T14:17:31Z</time>
<speed>3.010000</speed>
<extensions>
<speed>3.0</speed>
<temp>0.00</temp>
<bpm>0</bpm>
<rpm>0.00</rpm>
</extensions>
</trkpt>
<trkpt lat="63.870487213" lon="-21.804191589">
<ele>10.6</ele>
<time>2012-07-28T14:19:36Z</time>
<speed>3.380000</speed>
<extensions>
<speed>3.4</speed>
<temp>0.00</temp>
<bpm>0</bpm>
<rpm>0.00</rpm>
</extensions>
</trkpt>
<trkpt lat="63.870323181" lon="-21.816810608">
<ele>5.6</ele>
<time>2012-07-28T14:22:16Z</time>
<speed>4.480000</speed>
<extensions>
<speed>4.5</speed>
<temp>0.00</temp>
<bpm>0</bpm>
<rpm>0.00</rpm>
</extensions>
</trkpt>
<trkpt lat="63.870632172" lon="-21.826829910">
<ele>8.0</ele>
<time>2012-07-28T14:25:06Z</time>
<speed>2.610000</speed>
<extensions>
<speed>2.6</speed>
<temp>0.00</temp>
<bpm>0</bpm>
<rpm>0.00</rpm>
</extensions>
</trkpt>
<trkpt lat="63.870498657" lon="-21.837318420">
<ele>10.3</ele>
<time>2012-07-28T14:27:56Z</time>
<speed>3.940000</speed>
<extensions>
<speed>3.9</speed>
<temp>0.00</temp>
<bpm>0</bpm>
<rpm>0.00</rpm>
</extensions>
</trkpt>
<trkpt lat="63.869895935" lon="-21.847606659">
<ele>14.2</ele>
<time>2012-07-28T14:31:01Z</time>
<speed>2.440000</speed>
<extensions>
<speed>2.4</speed>
<temp>0.00</temp>
<bpm>0</bpm>
<rpm>0.00</rpm>
</extensions>
</trkpt>
<trkpt lat="63.869045258" lon="-21.855978012">
<ele>18.5</ele>
<time>2012-07-28T14:33:46Z</time>
<speed>2.920000</speed>
<extensions>
<speed>2.9</speed>
<temp>0.00</temp>
<bpm>0</bpm>
<rpm>0.00</rpm>
</extensions>
</trkpt>
<trkpt lat="63.867908478" lon="-21.864332199">
<ele>28.0</ele>
<time>2012-07-28T14:36:36Z</time>
<speed>3.320000</speed>
<extensions>
<speed>3.3</speed>
<temp>0.00</temp>
<bpm>0</bpm>
<rpm>0.00</rpm>
</extensions>
</trkpt>
<trkpt lat="63.863151550" lon="-21.890357971">
<ele>41.3</ele>
<time>2012-07-28T14:43:56Z</time>
<speed>2.620000</speed>
<extensions>
<speed>2.6</speed>
<temp>0.00</temp>
<bpm>0</bpm>
<rpm>0.00</rpm>
</extensions>
</trkpt>
<trkpt lat="63.859165192" lon="-21.916746140">
<ele>62.9</ele>
<time>2012-07-28T14:51:51Z</time>
<speed>2.940000</speed>
<extensions>
<speed>2.9</speed>
<temp>0.00</temp>
<bpm>0</bpm>
<rpm>0.00</rpm>
</extensions>
</trkpt>
<trkpt lat="63.857555389" lon="-21.924142838">
<ele>50.0</ele>
<time>2012-07-28T14:55:01Z</time>
<speed>7.980000</speed>
<extensions>
<speed>8.0</speed>
<temp>0.00</temp>
<bpm>0</bpm>
<rpm>0.00</rpm>
</extensions>
</trkpt>
<trkpt lat="63.854892731" lon="-21.933383942">
<ele>41.7</ele>
<time>2012-07-28T14:56:26Z</time>
<speed>1.790000</speed>
<extensions>
<speed>1.8</speed>
<temp>0.00</temp>
<bpm>0</bpm>
<rpm>0.00</rpm>
</extensions>
</trkpt>
<trkpt lat="63.854068756" lon="-21.937883377">
<ele>47.1</ele>
<time>2012-07-28T14:57:51Z</time>
<speed>3.250000</speed>
<extensions>
<speed>3.2</speed>
<temp>0.00</temp>
<bpm>0</bpm>
<rpm>0.00</rpm>
</extensions>
</trkpt>
<trkpt lat="63.853492737" lon="-21.943933487">
<ele>56.0</ele>
<time>2012-07-28T14:59:51Z</time>
<speed>2.140000</speed>
<extensions>
<speed>2.1</speed>
<temp>0.00</temp>
<bpm>0</bpm>
<rpm>0.00</rpm>
</extensions>
</trkpt>
<trkpt lat="63.853069305" lon="-21.956623077">
<ele>73.4</ele>
<time>2012-07-28T15:05:31Z</time>
<speed>4.340000</speed>
<extensions>
<speed>4.3</speed>
<temp>0.00</temp>
<bpm>0</bpm>
<rpm>0.00</rpm>
</extensions>
</trkpt>
<trkpt lat="63.852687836" lon="-21.960710526">
<ele>73.1</ele>
<time>2012-07-28T15:06:41Z</time>
<speed>3.280000</speed>
<extensions>
<speed>3.3</speed>
<temp>0.00</temp>
<bpm>0</bpm>
<rpm>0.00</rpm>
</extensions>
</trkpt>
<trkpt lat="63.851268768" lon="-21.971847534">
<ele>79.3</ele>
<time>2012-07-28T15:09:41Z</time>
<speed>2.780000</speed>
<extensions>
<speed>2.8</speed>
<temp>0.00</temp>
<bpm>0</bpm>
<rpm>0.00</rpm>
</extensions>
</trkpt>
<trkpt lat="63.850662231" lon="-21.978961945">
<ele>88.8</ele>
<time>2012-07-28T15:11:41Z</time>
<speed>1.890000</speed>
<extensions>
<speed>1.9</speed>
<temp>0.00</temp>
<bpm>0</bpm>
<rpm>0.00</rpm>
</extensions>
</trkpt>
<trkpt lat="63.850315094" lon="-21.989120483">
<ele>93.9</ele>
<time>2012-07-28T15:14:11Z</time>
<speed>2.850000</speed>
<extensions>
<speed>2.9</speed>
<temp>0.00</temp>
<bpm>0</bpm>
<rpm>0.00</rpm>
</extensions>
</trkpt>
<trkpt lat="63.850620270" lon="-22.003025055">
<ele>86.7</ele>
<time>2012-07-28T15:17:26Z</time>
<speed>4.450000</speed>
<extensions>
<speed>4.5</speed>
<temp>0.00</temp>
<bpm>0</bpm>
<rpm>0.00</rpm>
</extensions>
</trkpt>
<trkpt lat="63.850532532" lon="-22.015247345">
<ele>81.9</ele>
<time>2012-07-28T15:20:16Z</time>
<speed>2.220000</speed>
<extensions>
<speed>2.2</speed>
<temp>0.00</temp>
<bpm>0</bpm>
<rpm>0.00</rpm>
</extensions>
</trkpt>
<trkpt lat="63.851634979" lon="-22.015701294">
<ele>84.1</ele>
<time>2012-07-28T15:24:01Z</time>
<speed>2.800000</speed>
<extensions>
<speed>2.8</speed>
<temp>0.00</temp>
<bpm>0</bpm>
<rpm>0.00</rpm>
</extensions>
</trkpt>
<trkpt lat="63.852607727" lon="-22.017551422">
<ele>86.4</ele>
<time>2012-07-28T15:25:01Z</time>
<speed>1.990000</speed>
<extensions>
<speed>2.0</speed>
<temp>0.00</temp>
<bpm>0</bpm>
<rpm>0.00</rpm>
</extensions>
</trkpt>
<trkpt lat="63.853553772" lon="-22.018571854">
<ele>92.0</ele>
<time>2012-07-28T15:26:06Z</time>
<speed>0.870000</speed>
<extensions>
<speed>0.9</speed>
<temp>0.00</temp>
<bpm>0</bpm>
<rpm>0.00</rpm>
</extensions>
</trkpt>
<trkpt lat="63.853805542" lon="-22.019342422">
<ele>92.4</ele>
<time>2012-07-28T15:33:46Z</time>
<speed>0.060000</speed>
<extensions>
<speed>0.1</speed>
<temp>0.00</temp>
<bpm>0</bpm>
<rpm>0.00</rpm>
</extensions>
</trkpt>
<trkpt lat="63.853721619" lon="-22.019207001">
<ele>92.7</ele>
<time>2012-07-28T15:45:41Z</time>
<speed>0.040000</speed>
<extensions>
<speed>0.0</speed>
<temp>0.00</temp>
<bpm>0</bpm>
<rpm>0.00</rpm>
</extensions>
</trkpt>
<trkpt lat="63.853824615" lon="-22.019336700">
<ele>92.4</ele>
<time>2012-07-28T15:56:51Z</time>
<speed>0.050000</speed>
<extensions>
<speed>0.1</speed>
<temp>0.00</temp>
<bpm>0</bpm>
<rpm>0.00</rpm>
</extensions>
</trkpt>
<trkpt lat="63.853874207" lon="-22.018764496">
<ele>93.8</ele>
<time>2012-07-28T16:26:11Z</time>
<speed>0.030000</speed>
<extensions>
<speed>0.0</speed>
<temp>0.00</temp>
<bpm>0</bpm>
<rpm>0.00</rpm>
</extensions>
</trkpt>
<trkpt lat="63.855014801" lon="-22.018663406">
<ele>94.2</ele>
<time>2012-07-28T16:28:31Z</time>
<speed>2.560000</speed>
<extensions>
<speed>2.6</speed>
<temp>0.00</temp>
<bpm>0</bpm>
<rpm>0.00</rpm>
</extensions>
</trkpt>
<trkpt lat="63.856636047" lon="-22.017652512">
<ele>95.0</ele>
<time>2012-07-28T16:29:41Z</time>
<speed>2.540000</speed>
<extensions>
<speed>2.5</speed>
<temp>0.00</temp>
<bpm>0</bpm>
<rpm>0.00</rpm>
</extensions>
</trkpt>
<trkpt lat="63.857826233" lon="-22.017932892">
<ele>96.5</ele>
<time>2012-07-28T16:30:41Z</time>
<speed>1.970000</speed>
<extensions>
<speed>2.0</speed>
<temp>0.00</temp>
<bpm>0</bpm>
<rpm>0.00</rpm>
</extensions>
</trkpt>
<trkpt lat="63.858753204" lon="-22.018960953">
<ele>99.4</ele>
<time>2012-07-28T16:31:46Z</time>
<speed>1.770000</speed>
<extensions>
<speed>1.8</speed>
<temp>0.00</temp>
<bpm>0</bpm>
<rpm>0.00</rpm>
</extensions>
</trkpt>
<trkpt lat="63.859336853" lon="-22.020265579">
<ele>101.0</ele>
<time>2012-07-28T16:32:31Z</time>
<speed>2.640000</speed>
<extensions>
<speed>2.6</speed>
<temp>0.00</temp>
<bpm>0</bpm>
<rpm>0.00</rpm>
</extensions>
</trkpt>
<trkpt lat="63.867916107" lon="-22.046213150">
<ele>113.5</ele>
<time>2012-07-28T16:41:56Z</time>
<speed>1.800000</speed>
<extensions>
<speed>1.8</speed>
<temp>0.00</temp>
<bpm>0</bpm>
<rpm>0.00</rpm>
</extensions>
</trkpt>
<trkpt lat="63.868919373" lon="-22.048110962">
<ele>119.2</ele>
<time>2012-07-28T16:43:11Z</time>
<speed>2.300000</speed>
<extensions>
<speed>2.3</speed>
<temp>0.00</temp>
<bpm>0</bpm>
<rpm>0.00</rpm>
</extensions>
</trkpt>
<trkpt lat="63.869819641" lon="-22.049053192">
<ele>122.3</ele>
<time>2012-07-28T16:44:01Z</time>
<speed>2.500000</speed>
<extensions>
<speed>2.5</speed>
<temp>0.00</temp>
<bpm>0</bpm>
<rpm>0.00</rpm>
</extensions>
</trkpt>
<trkpt lat="63.880245209" lon="-22.057012558">
<ele>150.4</ele>
<time>2012-07-28T16:52:56Z</time>
<speed>2.570000</speed>
<extensions>
<speed>2.6</speed>
<temp>0.00</temp>
<bpm>0</bpm>
<rpm>0.00</rpm>
</extensions>
</trkpt>
<trkpt lat="63.885158539" lon="-22.059053421">
<ele>160.1</ele>
<time>2012-07-28T16:56:56Z</time>
<speed>2.910000</speed>
<extensions>
<speed>2.9</speed>
<temp>0.00</temp>
<bpm>0</bpm>
<rpm>0.00</rpm>
</extensions>
</trkpt>
<trkpt lat="63.886688232" lon="-22.058982849">
<ele>164.0</ele>
<time>2012-07-28T16:58:06Z</time>
<speed>2.380000</speed>
<extensions>
<speed>2.4</speed>
<temp>0.00</temp>
<bpm>0</bpm>
<rpm>0.00</rpm>
</extensions>
</trkpt>
<trkpt lat="63.888206482" lon="-22.058115005">
<ele>162.8</ele>
<time>2012-07-28T16:59:06Z</time>
<speed>4.300000</speed>
<extensions>
<speed>4.3</speed>
<temp>0.00</temp>
<bpm>0</bpm>
<rpm>0.00</rpm>
</extensions>
</trkpt>
<trkpt lat="63.893753052" lon="-22.052730560">
<ele>160.3</ele>
<time>2012-07-28T17:01:56Z</time>
<speed>3.110000</speed>
<extensions>
<speed>3.1</speed>
<temp>0.00</temp>
<bpm>0</bpm>
<rpm>0.00</rpm>
</extensions>
</trkpt>
<trkpt lat="63.894973755" lon="-22.050804138">
<ele>158.8</ele>
<time>2012-07-28T17:08:16Z</time>
<speed>4.200000</speed>
<extensions>
<speed>4.2</speed>
<temp>0.00</temp>
<bpm>0</bpm>
<rpm>0.00</rpm>
</extensions>
</trkpt>
<trkpt lat="63.895484924" lon="-22.051845551">
<ele>160.3</ele>
<time>2012-07-28T17:08:36Z</time>
<speed>4.150000</speed>
<extensions>
<speed>4.1</speed>
<temp>0.00</temp>
<bpm>0</bpm>
<rpm>0.00</rpm>
</extensions>
</trkpt>
<trkpt lat="63.895973206" lon="-22.052286148">
<ele>163.8</ele>
<time>2012-07-28T17:29:21Z</time>
<extensions>
<speed>0.0</speed>
<temp>0.00</temp>
<bpm>0</bpm>
<rpm>0.00</rpm>
</extensions>
</trkpt>
<trkpt lat="63.895381927" lon="-22.051643372">
<ele>159.7</ele>
<time>2012-07-28T17:43:01Z</time>
<speed>6.380000</speed>
<extensions>
<speed>6.4</speed>
<temp>0.00</temp>
<bpm>0</bpm>
<rpm>0.00</rpm>
</extensions>
</trkpt>
<trkpt lat="63.894996643" lon="-22.050567627">
<ele>158.6</ele>
<time>2012-07-28T17:43:16Z</time>
<speed>4.190000</speed>
<extensions>
<speed>4.2</speed>
<temp>0.00</temp>
<bpm>0</bpm>
<rpm>0.00</rpm>
</extensions>
</trkpt>
<trkpt lat="63.896350861" lon="-22.047485352">
<ele>156.3</ele>
<time>2012-07-28T17:43:56Z</time>
<speed>5.430000</speed>
<extensions>
<speed>5.4</speed>
<temp>0.00</temp>
<bpm>0</bpm>
<rpm>0.00</rpm>
</extensions>
</trkpt>
<trkpt lat="63.898143768" lon="-22.044357300">
<ele>153.6</ele>
<time>2012-07-28T17:44:46Z</time>
<speed>3.970000</speed>
<extensions>
<speed>4.0</speed>
<temp>0.00</temp>
<bpm>0</bpm>
<rpm>0.00</rpm>
</extensions>
</trkpt>
<trkpt lat="63.899280548" lon="-22.043228149">
<ele>152.2</ele>
<time>2012-07-28T17:45:21Z</time>
<speed>4.480000</speed>
<extensions>
<speed>4.5</speed>
<temp>0.00</temp>
<bpm>0</bpm>
<rpm>0.00</rpm>
</extensions>
</trkpt>
<trkpt lat="63.909694672" lon="-22.035312653">
<ele>144.9</ele>
<time>2012-07-28T17:51:16Z</time>
<speed>2.730000</speed>
<extensions>
<speed>2.7</speed>
<temp>0.00</temp>
<bpm>0</bpm>
<rpm>0.00</rpm>
</extensions>
</trkpt>
<trkpt lat="63.910957336" lon="-22.033815384">
<ele>147.3</ele>
<time>2012-07-28T17:52:11Z</time>
<speed>3.020000</speed>
<extensions>
<speed>3.0</speed>
<temp>0.00</temp>
<bpm>0</bpm>
<rpm>0.00</rpm>
</extensions>
</trkpt>
<trkpt lat="63.912929535" lon="-22.030307770">
<ele>146.3</ele>
<time>2012-07-28T17:53:56Z</time>
<speed>1.470000</speed>
<extensions>
<speed>1.5</speed>
<temp>0.00</temp>
<bpm>0</bpm>
<rpm>0.00</rpm>
</extensions>
</trkpt>
<trkpt lat="63.920383453" lon="-22.012866974">
<ele>145.7</ele>
<time>2012-07-28T18:01:06Z</time>
<speed>0.540000</speed>
<extensions>
<speed>0.5</speed>
<temp>0.00</temp>
<bpm>0</bpm>
<rpm>0.00</rpm>
</extensions>
</trkpt>
<trkpt lat="63.925559998" lon="-22.002765656">
<ele>147.4</ele>
<time>2012-07-28T18:07:46Z</time>
<speed>2.620000</speed>
<extensions>
<speed>2.6</speed>
<temp>0.00</temp>
<bpm>0</bpm>
<rpm>0.00</rpm>
</extensions>
</trkpt>
<trkpt lat="63.926017761" lon="-22.001075745">
<ele>151.1</ele>
<time>2012-07-28T18:08:31Z</time>
<speed>1.640000</speed>
<extensions>
<speed>1.6</speed>
<temp>0.00</temp>
<bpm>0</bpm>
<rpm>0.00</rpm>
</extensions>
</trkpt>
<trkpt lat="63.926033020" lon="-21.997478485">
<ele>162.9</ele>
<time>2012-07-28T18:10:51Z</time>
<speed>0.070000</speed>
<extensions>
<speed>0.1</speed>
<temp>0.00</temp>
<bpm>0</bpm>
<rpm>0.00</rpm>
</extensions>
</trkpt>
<trkpt lat="63.926414490" lon="-21.996858597">
<ele>153.3</ele>
<time>2012-07-28T18:11:31Z</time>
<speed>6.990000</speed>
<extensions>
<speed>7.0</speed>
<temp>0.00</temp>
<bpm>0</bpm>
<rpm>0.00</rpm>
</extensions>
</trkpt>
<trkpt lat="63.927204132" lon="-21.996311188">
<ele>150.3</ele>
<time>2012-07-28T18:11:46Z</time>
<speed>2.820000</speed>
<extensions>
<speed>2.8</speed>
<temp>0.00</temp>
<bpm>0</bpm>
<rpm>0.00</rpm>
</extensions>
</trkpt>
<trkpt lat="63.928905487" lon="-21.996835709">
<ele>158.2</ele>
<time>2012-07-28T18:13:16Z</time>
<speed>1.710000</speed>
<extensions>
<speed>1.7</speed>
<temp>0.00</temp>
<bpm>0</bpm>
<rpm>0.00</rpm>
</extensions>
</trkpt>
<trkpt lat="63.929996490" lon="-21.994621277">
<ele>167.2</ele>
<time>2012-07-28T18:15:31Z</time>
<speed>0.040000</speed>
<extensions>
<speed>0.0</speed>
<temp>0.00</temp>
<bpm>0</bpm>
<rpm>0.00</rpm>
</extensions>
</trkpt>
<trkpt lat="63.931434631" lon="-21.995704651">
<ele>165.6</ele>
<time>2012-07-28T18:16:21Z</time>
<speed>4.800000</speed>
<extensions>
<speed>4.8</speed>
<temp>0.00</temp>
<bpm>0</bpm>
<rpm>0.00</rpm>
</extensions>
</trkpt>
<trkpt lat="63.932552338" lon="-21.994358063">
<ele>153.1</ele>
<time>2012-07-28T18:16:46Z</time>
<speed>6.500000</speed>
<extensions>
<speed>6.5</speed>
<temp>0.00</temp>
<bpm>0</bpm>
<rpm>0.00</rpm>
</extensions>
</trkpt>
<trkpt lat="63.933147430" lon="-21.994796753">
<ele>150.9</ele>
<time>2012-07-28T18:16:56Z</time>
<speed>7.770000</speed>
<extensions>
<speed>7.8</speed>
<temp>0.00</temp>
<bpm>0</bpm>
<rpm>0.00</rpm>
</extensions>
</trkpt>
<trkpt lat="63.933429718" lon="-21.994646072">
<ele>146.2</ele>
<time>2012-07-28T18:17:01Z</time>
<speed>4.780000</speed>
<extensions>
<speed>4.8</speed>
<temp>0.00</temp>
<bpm>0</bpm>
<rpm>0.00</rpm>
</extensions>
</trkpt>
<trkpt lat="63.934162140" lon="-21.993013382">
<ele>144.6</ele>
<time>2012-07-28T18:17:41Z</time>
<speed>2.790000</speed>
<extensions>
<speed>2.8</speed>
<temp>0.00</temp>
<bpm>0</bpm>
<rpm>0.00</rpm>
</extensions>
</trkpt>
<trkpt lat="63.935482025" lon="-21.991073608">
<ele>145.4</ele>
<time>2012-07-28T18:18:46Z</time>
<speed>2.090000</speed>
<extensions>
<speed>2.1</speed>
<temp>0.00</temp>
<bpm>0</bpm>
<rpm>0.00</rpm>
</extensions>
</trkpt>
<trkpt lat="63.937858582" lon="-21.988590240">
<ele>158.2</ele>
<time>2012-07-28T18:21:36Z</time>
<speed>0.350000</speed>
<extensions>
<speed>0.3</speed>
<temp>0.00</temp>
<bpm>0</bpm>
<rpm>0.00</rpm>
</extensions>
</trkpt>
<trkpt lat="63.938388824" lon="-21.987491608">
<ele>171.7</ele>
<time>2012-07-28T18:22:56Z</time>
<speed>1.060000</speed>
<extensions>
<speed>1.1</speed>
<temp>0.00</temp>
<bpm>0</bpm>
<rpm>0.00</rpm>
</extensions>
</trkpt>
<trkpt lat="63.938552856" lon="-21.986148834">
<ele>178.3</ele>
<time>2012-07-28T18:24:31Z</time>
<speed>0.540000</speed>
<extensions>
<speed>0.5</speed>
<temp>0.00</temp>
<bpm>0</bpm>
<rpm>0.00</rpm>
</extensions>
</trkpt>
<trkpt lat="63.938812256" lon="-21.985435486">
<ele>169.9</ele>
<time>2012-07-28T18:25:31Z</time>
<speed>4.490000</speed>
<extensions>
<speed>4.5</speed>
<temp>0.00</temp>
<bpm>0</bpm>
<rpm>0.00</rpm>
</extensions>
</trkpt>
<trkpt lat="63.939849854" lon="-21.984540939">
<ele>155.7</ele>
<time>2012-07-28T18:25:51Z</time>
<speed>6.590000</speed>
<extensions>
<speed>6.6</speed>
<temp>0.00</temp>
<bpm>0</bpm>
<rpm>0.00</rpm>
</extensions>
</trkpt>
<trkpt lat="63.941352844" lon="-21.982608795">
<ele>142.0</ele>
<time>2012-07-28T18:26:11Z</time>
<speed>9.910000</speed>
<extensions>
<speed>9.9</speed>
<temp>0.00</temp>
<bpm>0</bpm>
<rpm>0.00</rpm>
</extensions>
</trkpt>
<trkpt lat="63.942195892" lon="-21.980617523">
<ele>138.8</ele>
<time>2012-07-28T18:26:31Z</time>
<speed>3.490000</speed>
<extensions>
<speed>3.5</speed>
<temp>0.00</temp>
<bpm>0</bpm>
<rpm>0.00</rpm>
</extensions>
</trkpt>
<trkpt lat="63.943119049" lon="-21.979526520">
<ele>138.4</ele>
<time>2012-07-28T18:27:01Z</time>
<speed>3.080000</speed>
<extensions>
<speed>3.1</speed>
<temp>0.00</temp>
<bpm>0</bpm>
<rpm>0.00</rpm>
</extensions>
</trkpt>
<trkpt lat="63.945705414" lon="-21.972824097">
<ele>138.9</ele>
<time>2012-07-28T18:28:51Z</time>
<speed>3.480000</speed>
<extensions>
<speed>3.5</speed>
<temp>0.00</temp>
<bpm>0</bpm>
<rpm>0.00</rpm>
</extensions>
</trkpt>
<trkpt lat="63.946109772" lon="-21.970998764">
<ele>139.5</ele>
<time>2012-07-28T18:29:16Z</time>
<speed>4.440000</speed>
<extensions>
<speed>4.4</speed>
<temp>0.00</temp>
<bpm>0</bpm>
<rpm>0.00</rpm>
</extensions>
</trkpt>
<trkpt lat="63.946746826" lon="-21.964340210">
<ele>140.8</ele>
<time>2012-07-28T18:30:36Z</time>
<speed>4.410000</speed>
<extensions>
<speed>4.4</speed>
<temp>0.00</temp>
<bpm>0</bpm>
<rpm>0.00</rpm>
</extensions>
</trkpt>
<trkpt lat="63.947071075" lon="-21.963073730">
<ele>140.2</ele>
<time>2012-07-28T18:30:51Z</time>
<speed>4.780000</speed>
<extensions>
<speed>4.8</speed>
<temp>0.00</temp>
<bpm>0</bpm>
<rpm>0.00</rpm>
</extensions>
</trkpt>
<trkpt lat="63.953525543" lon="-21.954687119">
<ele>148.9</ele>
<time>2012-07-28T18:35:51Z</time>
<speed>3.130000</speed>
<extensions>
<speed>3.1</speed>
<temp>0.00</temp>
<bpm>0</bpm>
<rpm>0.00</rpm>
</extensions>
</trkpt>
<trkpt lat="63.957923889" lon="-21.950584412">
<ele>152.2</ele>
<time>2012-07-28T18:38:36Z</time>
<speed>3.570000</speed>
<extensions>
<speed>3.6</speed>
<temp>0.00</temp>
<bpm>0</bpm>
<rpm>0.00</rpm>
</extensions>
</trkpt>
<trkpt lat="63.959289551" lon="-21.947803497">
<ele>155.0</ele>
<time>2012-07-28T18:39:41Z</time>
<speed>2.980000</speed>
<extensions>
<speed>3.0</speed>
<temp>0.00</temp>
<bpm>0</bpm>
<rpm>0.00</rpm>
</extensions>
</trkpt>
<trkpt lat="63.959865570" lon="-21.944147110">
<ele>162.0</ele>
<time>2012-07-28T18:41:11Z</time>
<speed>2.660000</speed>
<extensions>
<speed>2.7</speed>
<temp>0.00</temp>
<bpm>0</bpm>
<rpm>0.00</rpm>
</extensions>
</trkpt>
<trkpt lat="63.960262299" lon="-21.942876816">
<ele>162.6</ele>
<time>2012-07-28T18:41:51Z</time>
<speed>2.570000</speed>
<extensions>
<speed>2.6</speed>
<temp>0.00</temp>
<bpm>0</bpm>
<rpm>0.00</rpm>
</extensions>
</trkpt>
<trkpt lat="63.961391449" lon="-21.940355301">
<ele>159.2</ele>
<time>2012-07-28T18:42:51Z</time>
<speed>4.060000</speed>
<extensions>
<speed>4.1</speed>
<temp>0.00</temp>
<bpm>0</bpm>
<rpm>0.00</rpm>
</extensions>
</trkpt>
<trkpt lat="63.962211609" lon="-21.939481735">
<ele>158.5</ele>
<time>2012-07-28T18:43:21Z</time>
<speed>4.030000</speed>
<extensions>
<speed>4.0</speed>
<temp>0.00</temp>
<bpm>0</bpm>
<rpm>0.00</rpm>
</extensions>
</trkpt>
<trkpt lat="63.962783813" lon="-21.939596176">
<ele>157.1</ele>
<time>2012-07-28T18:43:36Z</time>
<speed>4.380000</speed>
<extensions>
<speed>4.4</speed>
<temp>0.00</temp>
<bpm>0</bpm>
<rpm>0.00</rpm>
</extensions>
</trkpt>
<trkpt lat="63.963615417" lon="-21.940570831">
<ele>157.2</ele>
<time>2012-07-28T18:44:11Z</time>
<speed>3.400000</speed>
<extensions>
<speed>3.4</speed>
<temp>0.00</temp>
<bpm>0</bpm>
<rpm>0.00</rpm>
</extensions>
</trkpt>
<trkpt lat="63.965545654" lon="-21.944438934">
<ele>160.0</ele>
<time>2012-07-28T18:46:01Z</time>
<speed>1.430000</speed>
<extensions>
<speed>1.4</speed>
<temp>0.00</temp>
<bpm>0</bpm>
<rpm>0.00</rpm>
</extensions>
</trkpt>
<trkpt lat="63.967441559" lon="-21.946907043">
<ele>170.1</ele>
<time>2012-07-28T18:49:06Z</time>
<speed>7.060000</speed>
<extensions>
<speed>7.1</speed>
<temp>0.00</temp>
<bpm>0</bpm>
<rpm>0.00</rpm>
</extensions>
</trkpt>
<trkpt lat="63.968486786" lon="-21.948923111">
<ele>150.4</ele>
<time>2012-07-28T18:49:21Z</time>
<speed>11.050000</speed>
<extensions>
<speed>11.0</speed>
<temp>0.00</temp>
<bpm>0</bpm>
<rpm>0.00</rpm>
</extensions>
</trkpt>
<trkpt lat="63.969860077" lon="-21.950670242">
<ele>127.7</ele>
<time>2012-07-28T18:49:36Z</time>
<speed>13.920000</speed>
<extensions>
<speed>13.9</speed>
<temp>0.00</temp>
<bpm>0</bpm>
<rpm>0.00</rpm>
</extensions>
</trkpt>
<trkpt lat="63.972209930" lon="-21.952301025">
<ele>125.5</ele>
<time>2012-07-28T18:50:36Z</time>
<speed>1.710000</speed>
<extensions>
<speed>1.7</speed>
<temp>0.00</temp>
<bpm>0</bpm>
<rpm>0.00</rpm>
</extensions>
</trkpt>
<trkpt lat="63.973953247" lon="-21.953016281">
<ele>122.9</ele>
<time>2012-07-28T18:51:46Z</time>
<speed>4.480000</speed>
<extensions>
<speed>4.5</speed>
<temp>0.00</temp>
<bpm>0</bpm>
<rpm>0.00</rpm>
</extensions>
</trkpt>
<trkpt lat="64.008728027" lon="-21.941650391">
<ele>79.5</ele>
<time>2012-07-28T19:03:16Z</time>
<speed>7.590000</speed>
<extensions>
<speed>7.6</speed>
<temp>0.00</temp>
<bpm>0</bpm>
<rpm>0.00</rpm>
</extensions>
</trkpt>
<trkpt lat="64.010337830" lon="-21.941926956">
<ele>79.0</ele>
<time>2012-07-28T19:03:46Z</time>
<speed>6.030000</speed>
<extensions>
<speed>6.0</speed>
<temp>0.00</temp>
<bpm>0</bpm>
<rpm>0.00</rpm>
</extensions>
</trkpt>
<trkpt lat="64.011123657" lon="-21.942651749">
<ele>76.5</ele>
<time>2012-07-28T19:04:01Z</time>
<speed>6.760000</speed>
<extensions>
<speed>6.8</speed>
<temp>0.00</temp>
<bpm>0</bpm>
<rpm>0.00</rpm>
</extensions>
</trkpt>
<trkpt lat="64.035697937" lon="-21.974790573">
<ele>34.5</ele>
<time>2012-07-28T19:13:01Z</time>
<speed>4.310000</speed>
<extensions>
<speed>4.3</speed>
<temp>0.00</temp>
<bpm>0</bpm>
<rpm>0.00</rpm>
</extensions>
</trkpt>
<trkpt lat="64.036964417" lon="-21.977239609">
<ele>33.2</ele>
<time>2012-07-28T19:13:41Z</time>
<speed>5.060000</speed>
<extensions>
<speed>5.1</speed>
<temp>0.00</temp>
<bpm>0</bpm>
<rpm>0.00</rpm>
</extensions>
</trkpt>
<trkpt lat="64.038993835" lon="-21.982633591">
<ele>27.2</ele>
<time>2012-07-28T19:14:56Z</time>
<speed>4.930000</speed>
<extensions>
<speed>4.9</speed>
<temp>0.00</temp>
<bpm>0</bpm>
<rpm>0.00</rpm>
</extensions>
</trkpt>
<trkpt lat="64.040626526" lon="-21.985288620">
<ele>25.0</ele>
<time>2012-07-28T19:15:41Z</time>
<speed>6.260000</speed>
<extensions>
<speed>6.3</speed>
<temp>0.00</temp>
<bpm>0</bpm>
<rpm>0.00</rpm>
</extensions>
</trkpt>
<trkpt lat="64.042488098" lon="-21.986986160">
<ele>19.7</ele>
<time>2012-07-28T19:16:21Z</time>
<speed>4.940000</speed>
<extensions>
<speed>4.9</speed>
<temp>0.00</temp>
<bpm>0</bpm>
<rpm>0.00</rpm>
</extensions>
</trkpt>
<trkpt lat="64.045799255" lon="-21.988615036">
<ele>14.5</ele>
<time>2012-07-28T19:17:46Z</time>
<speed>3.480000</speed>
<extensions>
<speed>3.5</speed>
<temp>0.00</temp>
<bpm>0</bpm>
<rpm>0.00</rpm>
</extensions>
</trkpt>
<trkpt lat="64.046058655" lon="-21.988361359">
<ele>13.9</ele>
<time>2012-07-28T19:17:56Z</time>
<speed>3.470000</speed>
<extensions>
<speed>3.5</speed>
<temp>0.00</temp>
<bpm>0</bpm>
<rpm>0.00</rpm>
</extensions>
</trkpt>
<trkpt lat="64.048294067" lon="-21.991048813">
<ele>10.3</ele>
<time>2012-07-28T19:19:01Z</time>
<speed>5.170000</speed>
<extensions>
<speed>5.2</speed>
<temp>0.00</temp>
<bpm>0</bpm>
<rpm>0.00</rpm>
</extensions>
</trkpt>
<trkpt lat="64.050231934" lon="-21.992568970">
<ele>8.6</ele>
<time>2012-07-28T19:20:11Z</time>
<speed>4.840000</speed>
<extensions>
<speed>4.8</speed>
<temp>0.00</temp>
<bpm>0</bpm>
<rpm>0.00</rpm>
</extensions>
</trkpt>
<trkpt lat="64.050666809" lon="-21.993774414">
<ele>9.6</ele>
<time>2012-07-28T19:20:36Z</time>
<speed>2.830000</speed>
<extensions>
<speed>2.8</speed>
<temp>0.00</temp>
<bpm>0</bpm>
<rpm>0.00</rpm>
</extensions>
</trkpt>
<trkpt lat="64.050804138" lon="-21.995195389">
<ele>11.1</ele>
<time>2012-07-28T19:21:01Z</time>
<speed>3.240000</speed>
<extensions>
<speed>3.2</speed>
<temp>0.00</temp>
<bpm>0</bpm>
<rpm>0.00</rpm>
</extensions>
</trkpt>
<trkpt lat="64.049919128" lon="-22.000471115">
<ele>12.2</ele>
<time>2012-07-28T19:22:16Z</time>
<speed>4.210000</speed>
<extensions>
<speed>4.2</speed>
<temp>0.00</temp>
<bpm>0</bpm>
<rpm>0.00</rpm>
</extensions>
</trkpt>
<trkpt lat="64.049995422" lon="-22.001487732">
<ele>10.2</ele>
<time>2012-07-28T19:22:31Z</time>
<speed>2.810000</speed>
<extensions>
<speed>2.8</speed>
<temp>0.00</temp>
<bpm>0</bpm>
<rpm>0.00</rpm>
</extensions>
</trkpt>
<trkpt lat="64.050224304" lon="-22.001693726">
<ele>9.7</ele>
<time>2012-07-28T19:22:41Z</time>
<speed>2.620000</speed>
<extensions>
<speed>2.6</speed>
<temp>0.00</temp>
<bpm>0</bpm>
<rpm>0.00</rpm>
</extensions>
</trkpt>
<trkpt lat="64.050376892" lon="-22.001487732">
<ele>8.9</ele>
<time>2012-07-28T19:23:21Z</time>
<speed>3.580000</speed>
<extensions>
<speed>3.6</speed>
<temp>0.00</temp>
<bpm>0</bpm>
<rpm>0.00</rpm>
</extensions>
</trkpt>
<trkpt lat="64.050994873" lon="-21.997844696">
<ele>9.5</ele>
<time>2012-07-28T19:24:11Z</time>
<speed>2.690000</speed>
<extensions>
<speed>2.7</speed>
<temp>0.00</temp>
<bpm>0</bpm>
<rpm>0.00</rpm>
</extensions>
</trkpt>
<trkpt lat="64.053955078" lon="-21.978273392">
<ele>23.3</ele>
<time>2012-07-28T19:30:16Z</time>
<speed>3.020000</speed>
<extensions>
<speed>3.0</speed>
<temp>0.00</temp>
<bpm>0</bpm>
<rpm>0.00</rpm>
</extensions>
</trkpt>
<trkpt lat="64.053970337" lon="-21.978050232">
<ele>23.0</ele>
<time>2012-07-28T19:30:41Z</time>
<speed>0.020000</speed>
<extensions>
<speed>0.0</speed>
<temp>0.00</temp>
<bpm>0</bpm>
<rpm>0.00</rpm>
</extensions>
</trkpt>
<trkpt lat="64.053451538" lon="-21.977523804">
<ele>22.3</ele>
<time>2012-07-28T19:32:06Z</time>
<speed>1.210000</speed>
<extensions>
<speed>1.2</speed>
<temp>0.00</temp>
<bpm>0</bpm>
<rpm>0.00</rpm>
</extensions>
</trkpt>
<trkpt lat="64.052490234" lon="-21.979866028">
<ele>21.1</ele>
<time>2012-07-28T19:33:06Z</time>
<speed>0.070000</speed>
<extensions>
<speed>0.1</speed>
<temp>0.00</temp>
<bpm>0</bpm>
<rpm>0.00</rpm>
</extensions>
</trkpt>
<trkpt lat="64.052536011" lon="-21.979484558">
<ele>21.3</ele>
<time>2012-07-28T19:35:01Z</time>
<speed>0.300000</speed>
<extensions>
<speed>0.3</speed>
<temp>0.00</temp>
<bpm>0</bpm>
<rpm>0.00</rpm>
</extensions>
</trkpt>
<trkpt lat="64.052787781" lon="-21.979684830">
<ele>21.1</ele>
<time>2012-07-28T19:37:26Z</time>
<speed>0.020000</speed>
<extensions>
<speed>0.0</speed>
<temp>0.00</temp>
<bpm>0</bpm>
<rpm>0.00</rpm>
</extensions>
</trkpt>
<trkpt lat="64.052635193" lon="-21.979782104">
<ele>21.6</ele>
<time>2012-07-28T19:44:36Z</time>
<speed>0.040000</speed>
<extensions>
<speed>0.0</speed>
<temp>0.00</temp>
<bpm>0</bpm>
<rpm>0.00</rpm>
</extensions>
</trkpt>
<trkpt lat="64.052459717" lon="-21.979331970">
<ele>20.9</ele>
<time>2012-07-28T19:50:36Z</time>
<speed>0.470000</speed>
<extensions>
<speed>0.5</speed>
<temp>0.00</temp>
<bpm>0</bpm>
<rpm>0.00</rpm>
</extensions>
</trkpt>
<trkpt lat="64.052566528" lon="-21.979713440">
<ele>21.4</ele>
<time>2012-07-28T19:53:41Z</time>
<speed>0.050000</speed>
<extensions>
<speed>0.1</speed>
<temp>0.00</temp>
<bpm>0</bpm>
<rpm>0.00</rpm>
</extensions>
</trkpt>
<trkpt lat="64.052688599" lon="-21.979639053">
<ele>21.4</ele>
<time>2012-07-28T20:03:26Z</time>
<speed>2.320000</speed>
<extensions>
<speed>2.3</speed>
<temp>0.00</temp>
<bpm>0</bpm>
<rpm>0.00</rpm>
</extensions>
</trkpt>
<trkpt lat="64.053077698" lon="-21.978019714">
<ele>21.4</ele>
<time>2012-07-28T20:03:51Z</time>
<speed>3.360000</speed>
<extensions>
<speed>3.4</speed>
<temp>0.00</temp>
<bpm>0</bpm>
<rpm>0.00</rpm>
</extensions>
</trkpt>
<trkpt lat="64.053245544" lon="-21.976127625">
<ele>22.9</ele>
<time>2012-07-28T20:04:16Z</time>
<speed>2.810000</speed>
<extensions>
<speed>2.8</speed>
<temp>0.00</temp>
<bpm>0</bpm>
<rpm>0.00</rpm>
</extensions>
</trkpt>
<trkpt lat="64.054138184" lon="-21.970817566">
<ele>25.3</ele>
<time>2012-07-28T20:05:46Z</time>
<speed>3.120000</speed>
<extensions>
<speed>3.1</speed>
<temp>0.00</temp>
<bpm>0</bpm>
<rpm>0.00</rpm>
</extensions>
</trkpt>
<trkpt lat="64.054061890" lon="-21.970235825">
<ele>22.8</ele>
<time>2012-07-28T20:05:56Z</time>
<speed>3.740000</speed>
<extensions>
<speed>3.7</speed>
<temp>0.00</temp>
<bpm>0</bpm>
<rpm>0.00</rpm>
</extensions>
</trkpt>
<trkpt lat="64.053443909" lon="-21.970022202">
<ele>23.2</ele>
<time>2012-07-28T20:06:16Z</time>
<speed>3.220000</speed>
<extensions>
<speed>3.2</speed>
<temp>0.00</temp>
<bpm>0</bpm>
<rpm>0.00</rpm>
</extensions>
</trkpt>
<trkpt lat="64.053459167" lon="-21.969684601">
<ele>23.2</ele>
<time>2012-07-28T20:06:21Z</time>
<speed>3.020000</speed>
<extensions>
<speed>3.0</speed>
<temp>0.00</temp>
<bpm>0</bpm>
<rpm>0.00</rpm>
</extensions>
</trkpt>
<trkpt lat="64.053932190" lon="-21.967884064">
<ele>22.9</ele>
<time>2012-07-28T20:06:51Z</time>
<speed>3.460000</speed>
<extensions>
<speed>3.5</speed>
<temp>0.00</temp>
<bpm>0</bpm>
<rpm>0.00</rpm>
</extensions>
</trkpt>
<trkpt lat="64.054367065" lon="-21.966951370">
<ele>24.1</ele>
<time>2012-07-28T20:07:11Z</time>
<speed>2.680000</speed>
<extensions>
<speed>2.7</speed>
<temp>0.00</temp>
<bpm>0</bpm>
<rpm>0.00</rpm>
</extensions>
</trkpt>
<trkpt lat="64.054214478" lon="-21.966060638">
<ele>23.7</ele>
<time>2012-07-28T20:07:26Z</time>
<speed>3.140000</speed>
<extensions>
<speed>3.1</speed>
<temp>0.00</temp>
<bpm>0</bpm>
<rpm>0.00</rpm>
</extensions>
</trkpt>
<trkpt lat="64.054527283" lon="-21.963989258">
<ele>23.7</ele>
<time>2012-07-28T20:08:06Z</time>
<speed>2.300000</speed>
<extensions>
<speed>2.3</speed>
<temp>0.00</temp>
<bpm>0</bpm>
<rpm>0.00</rpm>
</extensions>
</trkpt>
<trkpt lat="64.055755615" lon="-21.962402344">
<ele>38.3</ele>
<time>2012-07-28T20:09:46Z</time>
<speed>1.360000</speed>
<extensions>
<speed>1.4</speed>
<temp>0.00</temp>
<bpm>0</bpm>
<rpm>0.00</rpm>
</extensions>
</trkpt>
<trkpt lat="64.056106567" lon="-21.961204529">
<ele>41.4</ele>
<time>2012-07-28T20:10:31Z</time>
<speed>1.730000</speed>
<extensions>
<speed>1.7</speed>
<temp>0.00</temp>
<bpm>0</bpm>
<rpm>0.00</rpm>
</extensions>
</trkpt>
<trkpt lat="64.057037354" lon="-21.955299377">
<ele>52.8</ele>
<time>2012-07-28T20:13:16Z</time>
<speed>2.150000</speed>
<extensions>
<speed>2.1</speed>
<temp>0.00</temp>
<bpm>0</bpm>
<rpm>0.00</rpm>
</extensions>
</trkpt>
<trkpt lat="64.057151794" lon="-21.952058792">
<ele>57.4</ele>
<time>2012-07-28T20:14:46Z</time>
<speed>1.820000</speed>
<extensions>
<speed>1.8</speed>
<temp>0.00</temp>
<bpm>0</bpm>
<rpm>0.00</rpm>
</extensions>
</trkpt>
<trkpt lat="64.057785034" lon="-21.949775696">
<ele>65.1</ele>
<time>2012-07-28T20:15:41Z</time>
<speed>2.060000</speed>
<extensions>
<speed>2.1</speed>
<temp>0.00</temp>
<bpm>0</bpm>
<rpm>0.00</rpm>
</extensions>
</trkpt>
<trkpt lat="64.057907104" lon="-21.948030472">
<ele>68.2</ele>
<time>2012-07-28T20:16:21Z</time>
<speed>2.370000</speed>
<extensions>
<speed>2.4</speed>
<temp>0.00</temp>
<bpm>0</bpm>
<rpm>0.00</rpm>
</extensions>
</trkpt>
<trkpt lat="64.058303833" lon="-21.947515488">
<ele>66.9</ele>
<time>2012-07-28T20:16:41Z</time>
<speed>3.280000</speed>
<extensions>
<speed>3.3</speed>
<temp>0.00</temp>
<bpm>0</bpm>
<rpm>0.00</rpm>
</extensions>
</trkpt>
<trkpt lat="64.058547974" lon="-21.946365356">
<ele>67.7</ele>
<time>2012-07-28T20:16:56Z</time>
<speed>5.320000</speed>
<extensions>
<speed>5.3</speed>
<temp>0.00</temp>
<bpm>0</bpm>
<rpm>0.00</rpm>
</extensions>
</trkpt>
<trkpt lat="64.058967590" lon="-21.942077637">
<ele>55.5</ele>
<time>2012-07-28T20:17:21Z</time>
<speed>10.730000</speed>
<extensions>
<speed>10.7</speed>
<temp>0.00</temp>
<bpm>0</bpm>
<rpm>0.00</rpm>
</extensions>
</trkpt>
<trkpt lat="64.058914185" lon="-21.939802170">
<ele>52.2</ele>
<time>2012-07-28T20:17:31Z</time>
<speed>10.569999</speed>
<extensions>
<speed>10.6</speed>
<temp>0.00</temp>
<bpm>0</bpm>
<rpm>0.00</rpm>
</extensions>
</trkpt>
<trkpt lat="64.059318542" lon="-21.938499451">
<ele>49.1</ele>
<time>2012-07-28T20:17:41Z</time>
<speed>6.700000</speed>
<extensions>
<speed>6.7</speed>
<temp>0.00</temp>
<bpm>0</bpm>
<rpm>0.00</rpm>
</extensions>
</trkpt>
<trkpt lat="64.059661865" lon="-21.938884735">
<ele>48.1</ele>
<time>2012-07-28T20:18:06Z</time>
<speed>1.950000</speed>
<extensions>
<speed>1.9</speed>
<temp>0.00</temp>
<bpm>0</bpm>
<rpm>0.00</rpm>
</extensions>
</trkpt>
<trkpt lat="64.059410095" lon="-21.939397812">
<ele>48.3</ele>
<time>2012-07-28T20:18:21Z</time>
<speed>3.780000</speed>
<extensions>
<speed>3.8</speed>
<temp>0.00</temp>
<bpm>0</bpm>
<rpm>0.00</rpm>
</extensions>
</trkpt>
<trkpt lat="64.059417725" lon="-21.939847946">
<ele>48.3</ele>
<time>2012-07-28T20:18:26Z</time>
<speed>4.560000</speed>
<extensions>
<speed>4.6</speed>
<temp>0.00</temp>
<bpm>0</bpm>
<rpm>0.00</rpm>
</extensions>
</trkpt>
<trkpt lat="64.059471130" lon="-21.940357208">
<ele>48.5</ele>
<time>2012-07-28T20:18:31Z</time>
<speed>5.870000</speed>
<extensions>
<speed>5.9</speed>
<temp>0.00</temp>
<bpm>0</bpm>
<rpm>0.00</rpm>
</extensions>
</trkpt>
<trkpt lat="64.059722900" lon="-21.940681458">
<ele>45.8</ele>
<time>2012-07-28T20:18:36Z</time>
<speed>6.750000</speed>
<extensions>
<speed>6.7</speed>
<temp>0.00</temp>
<bpm>0</bpm>
<rpm>0.00</rpm>
</extensions>
</trkpt>
<trkpt lat="64.061431885" lon="-21.938764572">
<ele>37.6</ele>
<time>2012-07-28T20:19:01Z</time>
<speed>8.740000</speed>
<extensions>
<speed>8.7</speed>
<temp>0.00</temp>
<bpm>0</bpm>
<rpm>0.00</rpm>
</extensions>
</trkpt>
<trkpt lat="64.067222595" lon="-21.937215805">
<ele>18.2</ele>
<time>2012-07-28T20:20:21Z</time>
<speed>5.270000</speed>
<extensions>
<speed>5.3</speed>
<temp>0.00</temp>
<bpm>0</bpm>
<rpm>0.00</rpm>
</extensions>
</trkpt>
<trkpt lat="64.067649841" lon="-21.937692642">
<ele>18.2</ele>
<time>2012-07-28T20:20:31Z</time>
<speed>5.170000</speed>
<extensions>
<speed>5.2</speed>
<temp>0.00</temp>
<bpm>0</bpm>
<rpm>0.00</rpm>
</extensions>
</trkpt>
<trkpt lat="64.075202942" lon="-21.939992905">
<ele>21.7</ele>
<time>2012-07-28T20:24:16Z</time>
<speed>4.750000</speed>
<extensions>
<speed>4.8</speed>
<temp>0.00</temp>
<bpm>0</bpm>
<rpm>0.00</rpm>
</extensions>
</trkpt>
<trkpt lat="64.076126099" lon="-21.939920425">
<ele>22.0</ele>
<time>2012-07-28T20:24:41Z</time>
<speed>3.970000</speed>
<extensions>
<speed>4.0</speed>
<temp>0.00</temp>
<bpm>0</bpm>
<rpm>0.00</rpm>
</extensions>
</trkpt>
<trkpt lat="64.076744080" lon="-21.940513611">
<ele>24.6</ele>
<time>2012-07-28T20:25:01Z</time>
<speed>4.630000</speed>
<extensions>
<speed>4.6</speed>
<temp>0.00</temp>
<bpm>0</bpm>
<rpm>0.00</rpm>
</extensions>
</trkpt>
<trkpt lat="64.082740784" lon="-21.942228317">
<ele>25.4</ele>
<time>2012-07-28T20:27:46Z</time>
<speed>3.360000</speed>
<extensions>
<speed>3.4</speed>
<temp>0.00</temp>
<bpm>0</bpm>
<rpm>0.00</rpm>
</extensions>
</trkpt>
<trkpt lat="64.083808899" lon="-21.943441391">
<ele>21.3</ele>
<time>2012-07-28T20:28:16Z</time>
<speed>0.710000</speed>
<extensions>
<speed>0.7</speed>
<temp>0.00</temp>
<bpm>0</bpm>
<rpm>0.00</rpm>
</extensions>
</trkpt>
<trkpt lat="64.084083557" lon="-21.943141937">
<ele>20.3</ele>
<time>2012-07-28T20:29:26Z</time>
<speed>3.190000</speed>
<extensions>
<speed>3.2</speed>
<temp>0.00</temp>
<bpm>0</bpm>
<rpm>0.00</rpm>
</extensions>
</trkpt>
<trkpt lat="64.085456848" lon="-21.939510345">
<ele>28.0</ele>
<time>2012-07-28T20:30:51Z</time>
<speed>3.270000</speed>
<extensions>
<speed>3.3</speed>
<temp>0.00</temp>
<bpm>0</bpm>
<rpm>0.00</rpm>
</extensions>
</trkpt>
<trkpt lat="64.088455200" lon="-21.934474945">
<ele>23.0</ele>
<time>2012-07-28T20:32:21Z</time>
<speed>3.250000</speed>
<extensions>
<speed>3.2</speed>
<temp>0.00</temp>
<bpm>0</bpm>
<rpm>0.00</rpm>
</extensions>
</trkpt>
<trkpt lat="64.091514587" lon="-21.926790237">
<ele>16.8</ele>
<time>2012-07-28T20:33:56Z</time>
<speed>7.190000</speed>
<extensions>
<speed>7.2</speed>
<temp>0.00</temp>
<bpm>0</bpm>
<rpm>0.00</rpm>
</extensions>
</trkpt>
<trkpt lat="64.096641541" lon="-21.920980453">
<ele>7.1</ele>
<time>2012-07-28T20:35:16Z</time>
<speed>6.210000</speed>
<extensions>
<speed>6.2</speed>
<temp>0.00</temp>
<bpm>0</bpm>
<rpm>0.00</rpm>
</extensions>
</trkpt>
<trkpt lat="64.098228455" lon="-21.918745041">
<ele>11.2</ele>
<time>2012-07-28T20:35:51Z</time>
<speed>4.760000</speed>
<extensions>
<speed>4.8</speed>
<temp>0.00</temp>
<bpm>0</bpm>
<rpm>0.00</rpm>
</extensions>
</trkpt>
<trkpt lat="64.099418640" lon="-21.916145325">
<ele>18.3</ele>
<time>2012-07-28T20:36:56Z</time>
<speed>2.780000</speed>
<extensions>
<speed>2.8</speed>
<temp>0.00</temp>
<bpm>0</bpm>
<rpm>0.00</rpm>
</extensions>
</trkpt>
<trkpt lat="64.100105286" lon="-21.914005280">
<ele>22.5</ele>
<time>2012-07-28T20:37:36Z</time>
<speed>4.010000</speed>
<extensions>
<speed>4.0</speed>
<temp>0.00</temp>
<bpm>0</bpm>
<rpm>0.00</rpm>
</extensions>
</trkpt>
<trkpt lat="64.102066040" lon="-21.906774521">
<ele>6.1</ele>
<time>2012-07-28T20:38:46Z</time>
<speed>9.560000</speed>
<extensions>
<speed>9.6</speed>
<temp>0.00</temp>
<bpm>0</bpm>
<rpm>0.00</rpm>
</extensions>
</trkpt>
<trkpt lat="64.103263855" lon="-21.904491425">
<ele>2.9</ele>
<time>2012-07-28T20:39:06Z</time>
<speed>7.980000</speed>
<extensions>
<speed>8.0</speed>
<temp>0.00</temp>
<bpm>0</bpm>
<rpm>0.00</rpm>
</extensions>
</trkpt>
<trkpt lat="64.104454041" lon="-21.903554916">
<ele>2.8</ele>
<time>2012-07-28T20:39:26Z</time>
<speed>5.760000</speed>
<extensions>
<speed>5.8</speed>
<temp>0.00</temp>
<bpm>0</bpm>
<rpm>0.00</rpm>
</extensions>
</trkpt>
<trkpt lat="64.105743408" lon="-21.903566360">
<ele>6.3</ele>
<time>2012-07-28T20:40:01Z</time>
<speed>2.500000</speed>
<extensions>
<speed>2.5</speed>
<temp>0.00</temp>
<bpm>0</bpm>
<rpm>0.00</rpm>
</extensions>
</trkpt>
<trkpt lat="64.109649658" lon="-21.907394409">
<ele>28.7</ele>
<time>2012-07-28T20:43:16Z</time>
<speed>3.210000</speed>
<extensions>
<speed>3.2</speed>
<temp>0.00</temp>
<bpm>0</bpm>
<rpm>0.00</rpm>
</extensions>
</trkpt>
<trkpt lat="64.110832214" lon="-21.907754898">
<ele>34.7</ele>
<time>2012-07-28T20:43:56Z</time>
<speed>3.370000</speed>
<extensions>
<speed>3.4</speed>
<temp>0.00</temp>
<bpm>0</bpm>
<rpm>0.00</rpm>
</extensions>
</trkpt>
<trkpt lat="64.112251282" lon="-21.906841278">
<ele>42.2</ele>
<time>2012-07-28T20:44:39Z</time>
<speed>4.840000</speed>
<extensions>
<speed>4.8</speed>
<temp>0.00</temp>
<bpm>0</bpm>
<rpm>0.00</rpm>
</extensions>
</trkpt>
<trkpt lat="64.112876892" lon="-21.905879974">
<ele>35.3</ele>
<time>2012-07-28T20:44:54Z</time>
<speed>5.850000</speed>
<extensions>
<speed>5.8</speed>
<temp>0.00</temp>
<bpm>0</bpm>
<rpm>0.00</rpm>
</extensions>
</trkpt>
<trkpt lat="64.115089417" lon="-21.899747849">
<ele>14.7</ele>
<time>2012-07-28T20:45:39Z</time>
<speed>10.460000</speed>
<extensions>
<speed>10.5</speed>
<temp>0.00</temp>
<bpm>0</bpm>
<rpm>0.00</rpm>
</extensions>
</trkpt>
<trkpt lat="64.115913391" lon="-21.898582458">
<ele>14.0</ele>
<time>2012-07-28T20:45:49Z</time>
<speed>10.430000</speed>
<extensions>
<speed>10.4</speed>
<temp>0.00</temp>
<bpm>0</bpm>
<rpm>0.00</rpm>
</extensions>
</trkpt>
<trkpt lat="64.116767883" lon="-21.898004532">
<ele>8.8</ele>
<time>2012-07-28T20:45:59Z</time>
<speed>8.930000</speed>
<extensions>
<speed>8.9</speed>
<temp>0.00</temp>
<bpm>0</bpm>
<rpm>0.00</rpm>
</extensions>
</trkpt>
<trkpt lat="64.128868103" lon="-21.899938583">
<ele>42.9</ele>
<time>2012-07-28T20:53:49Z</time>
<speed>4.010000</speed>
<extensions>
<speed>4.0</speed>
<temp>0.00</temp>
<bpm>0</bpm>
<rpm>0.00</rpm>
</extensions>
</trkpt>
<trkpt lat="64.130294800" lon="-21.899784088">
<ele>39.8</ele>
<time>2012-07-28T20:54:54Z</time>
<speed>6.340000</speed>
<extensions>
<speed>6.3</speed>
<temp>0.00</temp>
<bpm>0</bpm>
<rpm>0.00</rpm>
</extensions>
</trkpt>
<trkpt lat="64.131774902" lon="-21.898946762">
<ele>37.2</ele>
<time>2012-07-28T20:55:19Z</time>
<speed>7.280000</speed>
<extensions>
<speed>7.3</speed>
<temp>0.00</temp>
<bpm>0</bpm>
<rpm>0.00</rpm>
</extensions>
</trkpt>
<trkpt lat="64.137947083" lon="-21.893806458">
<ele>29.1</ele>
<time>2012-07-28T20:57:54Z</time>
<speed>4.780000</speed>
<extensions>
<speed>4.8</speed>
<temp>0.00</temp>
<bpm>0</bpm>
<rpm>0.00</rpm>
</extensions>
</trkpt>
<trkpt lat="64.138015747" lon="-21.892961502">
<ele>29.1</ele>
<time>2012-07-28T20:58:04Z</time>
<speed>5.240000</speed>
<extensions>
<speed>5.2</speed>
<temp>0.00</temp>
<bpm>0</bpm>
<rpm>0.00</rpm>
</extensions>
</trkpt>
<trkpt lat="64.137481689" lon="-21.889492035">
<ele>31.6</ele>
<time>2012-07-28T20:59:14Z</time>
<speed>3.670000</speed>
<extensions>
<speed>3.7</speed>
<temp>0.00</temp>
<bpm>0</bpm>
<rpm>0.00</rpm>
</extensions>
</trkpt>
<trkpt lat="64.138458252" lon="-21.887008667">
<ele>35.3</ele>
<time>2012-07-28T21:00:04Z</time>
<speed>2.800000</speed>
<extensions>
<speed>2.8</speed>
<temp>0.00</temp>
<bpm>0</bpm>
<rpm>0.00</rpm>
</extensions>
</trkpt>
<trkpt lat="64.138824463" lon="-21.885032654">
<ele>36.9</ele>
<time>2012-07-28T21:00:44Z</time>
<speed>2.500000</speed>
<extensions>
<speed>2.5</speed>
<temp>0.00</temp>
<bpm>0</bpm>
<rpm>0.00</rpm>
</extensions>
</trkpt>
<trkpt lat="64.138641357" lon="-21.882946014">
<ele>36.9</ele>
<time>2012-07-28T21:01:24Z</time>
<speed>2.840000</speed>
<extensions>
<speed>2.8</speed>
<temp>0.00</temp>
<bpm>0</bpm>
<rpm>0.00</rpm>
</extensions>
</trkpt>
<trkpt lat="64.138397217" lon="-21.882129669">
<ele>37.6</ele>
<time>2012-07-28T21:01:39Z</time>
<speed>3.400000</speed>
<extensions>
<speed>3.4</speed>
<temp>0.00</temp>
<bpm>0</bpm>
<rpm>0.00</rpm>
</extensions>
</trkpt>
<trkpt lat="64.137855530" lon="-21.881280899">
<ele>37.8</ele>
<time>2012-07-28T21:03:09Z</time>
<extensions>
<speed>0.0</speed>
<temp>0.00</temp>
<bpm>0</bpm>
<rpm>0.00</rpm>
</extensions>
</trkpt>
<trkpt lat="64.137802124" lon="-21.880744934">
<ele>39.2</ele>
<time>2012-07-28T21:03:29Z</time>
<speed>4.430000</speed>
<extensions>
<speed>4.4</speed>
<temp>0.00</temp>
<bpm>0</bpm>
<rpm>0.00</rpm>
</extensions>
</trkpt>
<trkpt lat="64.138641357" lon="-21.878578186">
<ele>28.0</ele>
<time>2012-07-28T21:04:29Z</time>
<speed>3.540000</speed>
<extensions>
<speed>3.5</speed>
<temp>0.00</temp>
<bpm>0</bpm>
<rpm>0.00</rpm>
</extensions>
</trkpt>
<trkpt lat="64.139129639" lon="-21.879405975">
<ele>27.5</ele>
<time>2012-07-28T21:04:49Z</time>
<speed>3.380000</speed>
<extensions>
<speed>3.4</speed>
<temp>0.00</temp>
<bpm>0</bpm>
<rpm>0.00</rpm>
</extensions>
</trkpt>
<trkpt lat="64.140312195" lon="-21.883390427">
<ele>27.2</ele>
<time>2012-07-28T21:05:39Z</time>
<speed>4.030000</speed>
<extensions>
<speed>4.0</speed>
<temp>0.00</temp>
<bpm>0</bpm>
<rpm>0.00</rpm>
</extensions>
</trkpt>
<trkpt lat="64.141571045" lon="-21.882915497">
<ele>19.8</ele>
<time>2012-07-28T21:06:14Z</time>
<speed>3.260000</speed>
<extensions>
<speed>3.3</speed>
<temp>0.00</temp>
<bpm>0</bpm>
<rpm>0.00</rpm>
</extensions>
</trkpt>
<trkpt lat="64.143119812" lon="-21.882963181">
<ele>14.9</ele>
<time>2012-07-28T21:06:54Z</time>
<speed>5.420000</speed>
<extensions>
<speed>5.4</speed>
<temp>0.00</temp>
<bpm>0</bpm>
<rpm>0.00</rpm>
</extensions>
</trkpt>
<trkpt lat="64.146621704" lon="-21.881820679">
<ele>7.6</ele>
<time>2012-07-28T21:08:34Z</time>
<speed>2.810000</speed>
<extensions>
<speed>2.8</speed>
<temp>0.00</temp>
<bpm>0</bpm>
<rpm>0.00</rpm>
</extensions>
</trkpt>
<trkpt lat="64.146751404" lon="-21.875967026">
<ele>10.9</ele>
<time>2012-07-28T21:09:59Z</time>
<speed>1.700000</speed>
<extensions>
<speed>1.7</speed>
<temp>0.00</temp>
<bpm>0</bpm>
<rpm>0.00</rpm>
</extensions>
</trkpt>
<trkpt lat="64.146194458" lon="-21.875841141">
<ele>11.2</ele>
<time>2012-07-28T21:10:19Z</time>
<speed>1.500000</speed>
<extensions>
<speed>1.5</speed>
<temp>0.00</temp>
<bpm>0</bpm>
<rpm>0.00</rpm>
</extensions>
</trkpt>
<trkpt lat="64.146148682" lon="-21.876647949">
<ele>10.8</ele>
<time>2012-07-28T21:11:34Z</time>
<speed>0.020000</speed>
<extensions>
<speed>0.0</speed>
<temp>0.00</temp>
<bpm>0</bpm>
<rpm>0.00</rpm>
</extensions>
</trkpt>
<trkpt lat="64.146171570" lon="-21.875204086">
<ele>11.8</ele>
<time>2012-07-28T21:13:04Z</time>
<speed>1.890000</speed>
<extensions>
<speed>1.9</speed>
<temp>0.00</temp>
<bpm>0</bpm>
<rpm>0.00</rpm>
</extensions>
</trkpt>
<trkpt lat="64.145576477" lon="-21.874694824">
<ele>12.9</ele>
<time>2012-07-28T21:13:29Z</time>
<speed>3.000000</speed>
<extensions>
<speed>3.0</speed>
<temp>0.00</temp>
<bpm>0</bpm>
<rpm>0.00</rpm>
</extensions>
</trkpt>
<trkpt lat="64.144676208" lon="-21.874643326">
<ele>12.4</ele>
<time>2012-07-28T21:14:14Z</time>
<speed>2.930000</speed>
<extensions>
<speed>2.9</speed>
<temp>0.00</temp>
<bpm>0</bpm>
<rpm>0.00</rpm>
</extensions>
</trkpt>
<trkpt lat="64.144432068" lon="-21.874277115">
<ele>13.0</ele>
<time>2012-07-28T21:14:39Z</time>
<speed>0.010000</speed>
<extensions>
<speed>0.0</speed>
<temp>0.00</temp>
<bpm>0</bpm>
<rpm>0.00</rpm>
</extensions>
</trkpt>
<trkpt lat="64.144752502" lon="-21.874052048">
<ele>14.6</ele>
<time>2012-07-28T21:19:04Z</time>
<speed>1.160000</speed>
<extensions>
<speed>1.2</speed>
<temp>0.00</temp>
<bpm>0</bpm>
<rpm>0.00</rpm>
</extensions>
</trkpt>
<trkpt lat="64.145988464" lon="-21.875158310">
<ele>11.8</ele>
<time>2012-07-28T21:20:29Z</time>
<speed>2.580000</speed>
<extensions>
<speed>2.6</speed>
<temp>0.00</temp>
<bpm>0</bpm>
<rpm>0.00</rpm>
</extensions>
</trkpt>
<trkpt lat="64.146095276" lon="-21.875169754">
<ele>11.8</ele>
<time>2012-07-28T21:20:34Z</time>
<speed>2.340000</speed>
<extensions>
<speed>2.3</speed>
<temp>0.00</temp>
<bpm>0</bpm>
<rpm>0.00</rpm>
</extensions>
</trkpt>
<trkpt lat="64.146141052" lon="-21.874454498">
<ele>12.6</ele>
<time>2012-07-28T21:21:39Z</time>
<speed>0.010000</speed>
<extensions>
<speed>0.0</speed>
<temp>0.00</temp>
<bpm>0</bpm>
<rpm>0.00</rpm>
</extensions>
</trkpt>
<trkpt lat="64.145599365" lon="-21.875230789">
<ele>11.5</ele>
<time>2012-07-28T21:28:49Z</time>
<speed>0.080000</speed>
<extensions>
<speed>0.1</speed>
<temp>0.00</temp>
<bpm>0</bpm>
<rpm>0.00</rpm>
</extensions>
</trkpt>
<trkpt lat="64.146766663" lon="-21.876190186">
<ele>10.7</ele>
<time>2012-07-28T22:36:49Z</time>
<speed>3.130000</speed>
<extensions>
<speed>3.1</speed>
<temp>0.00</temp>
<bpm>0</bpm>
<rpm>0.00</rpm>
</extensions>
</trkpt>
<trkpt lat="64.146781921" lon="-21.881120682">
<ele>7.2</ele>
<time>2012-07-28T22:37:59Z</time>
<speed>4.340000</speed>
<extensions>
<speed>4.3</speed>
<temp>0.00</temp>
<bpm>0</bpm>
<rpm>0.00</rpm>
</extensions>
</trkpt>
<trkpt lat="64.146492004" lon="-21.892673492">
<ele>3.7</ele>
<time>2012-07-28T22:41:59Z</time>
<speed>0.030000</speed>
<extensions>
<speed>0.0</speed>
<temp>0.00</temp>
<bpm>0</bpm>
<rpm>0.00</rpm>
</extensions>
</trkpt>
<trkpt lat="64.145668030" lon="-21.900733948">
<ele>5.4</ele>
<time>2012-07-28T22:44:04Z</time>
<speed>3.230000</speed>
<extensions>
<speed>3.2</speed>
<temp>0.00</temp>
<bpm>0</bpm>
<rpm>0.00</rpm>
</extensions>
</trkpt>
<trkpt lat="64.145576477" lon="-21.906522751">
<ele>9.7</ele>
<time>2012-07-28T22:45:04Z</time>
<speed>4.230000</speed>
<extensions>
<speed>4.2</speed>
<temp>0.00</temp>
<bpm>0</bpm>
<rpm>0.00</rpm>
</extensions>
</trkpt>
<trkpt lat="64.145240784" lon="-21.912157059">
<ele>12.2</ele>
<time>2012-07-28T22:46:04Z</time>
<speed>5.380000</speed>
<extensions>
<speed>5.4</speed>
<temp>0.00</temp>
<bpm>0</bpm>
<rpm>0.00</rpm>
</extensions>
</trkpt>
<trkpt lat="64.145011902" lon="-21.913564682">
<ele>8.3</ele>
<time>2012-07-28T22:46:14Z</time>
<speed>3.940000</speed>
<extensions>
<speed>3.9</speed>
<temp>0.00</temp>
<bpm>0</bpm>
<rpm>0.00</rpm>
</extensions>
</trkpt>
<trkpt lat="64.144767761" lon="-21.913824081">
<ele>9.6</ele>
<time>2012-07-28T22:46:29Z</time>
<speed>1.920000</speed>
<extensions>
<speed>1.9</speed>
<temp>0.00</temp>
<bpm>0</bpm>
<rpm>0.00</rpm>
</extensions>
</trkpt>
<trkpt lat="64.145584106" lon="-21.913970947">
<ele>5.2</ele>
<time>2012-07-28T22:46:59Z</time>
<speed>1.080000</speed>
<extensions>
<speed>1.1</speed>
<temp>0.00</temp>
<bpm>0</bpm>
<rpm>0.00</rpm>
</extensions>
</trkpt>
<trkpt lat="64.145774841" lon="-21.914329529">
<ele>4.8</ele>
<time>2012-07-28T22:47:14Z</time>
<speed>4.080000</speed>
<extensions>
<speed>4.1</speed>
<temp>0.00</temp>
<bpm>0</bpm>
<rpm>0.00</rpm>
</extensions>
</trkpt>
<trkpt lat="64.146034241" lon="-21.917339325">
<ele>4.6</ele>
<time>2012-07-28T22:47:44Z</time>
<speed>5.040000</speed>
<extensions>
<speed>5.0</speed>
<temp>0.00</temp>
<bpm>0</bpm>
<rpm>0.00</rpm>
</extensions>
</trkpt>
<trkpt lat="64.146728516" lon="-21.920663834">
<ele>3.9</ele>
<time>2012-07-28T22:48:19Z</time>
<speed>2.210000</speed>
<extensions>
<speed>2.2</speed>
<temp>0.00</temp>
<bpm>0</bpm>
<rpm>0.00</rpm>
</extensions>
</trkpt>
<trkpt lat="64.146568298" lon="-21.922018051">
<ele>10.1</ele>
<time>2012-07-28T22:49:34Z</time>
<speed>4.370000</speed>
<extensions>
<speed>4.4</speed>
<temp>0.00</temp>
<bpm>0</bpm>
<rpm>0.00</rpm>
</extensions>
</trkpt>
<trkpt lat="64.146797180" lon="-21.922903061">
<ele>4.8</ele>
<time>2012-07-28T22:49:49Z</time>
<speed>2.080000</speed>
<extensions>
<speed>2.1</speed>
<temp>0.00</temp>
<bpm>0</bpm>
<rpm>0.00</rpm>
</extensions>
</trkpt>
<trkpt lat="64.146408081" lon="-21.923446655">
<ele>7.1</ele>
<time>2012-07-28T22:50:04Z</time>
<speed>2.050000</speed>
<extensions>
<speed>2.1</speed>
<temp>0.00</temp>
<bpm>0</bpm>
<rpm>0.00</rpm>
</extensions>
</trkpt>
<trkpt lat="64.146080017" lon="-21.923284531">
<ele>9.5</ele>
<time>2012-07-28T22:50:29Z</time>
<speed>2.100000</speed>
<extensions>
<speed>2.1</speed>
<temp>0.00</temp>
<bpm>0</bpm>
<rpm>0.00</rpm>
</extensions>
</trkpt>
<trkpt lat="64.145599365" lon="-21.924345016">
<ele>15.5</ele>
<time>2012-07-28T22:52:49Z</time>
<speed>1.330000</speed>
<extensions>
<speed>1.3</speed>
<temp>0.00</temp>
<bpm>0</bpm>
<rpm>0.00</rpm>
</extensions>
</trkpt>
<trkpt lat="64.146194458" lon="-21.926946640">
<ele>20.9</ele>
<time>2012-07-28T22:53:39Z</time>
<speed>1.910000</speed>
<extensions>
<speed>1.9</speed>
<temp>0.00</temp>
<bpm>0</bpm>
<rpm>0.00</rpm>
</extensions>
</trkpt>
<trkpt lat="64.146392822" lon="-21.928718567">
<ele>20.6</ele>
<time>2012-07-28T22:54:54Z</time>
<speed>0.010000</speed>
<extensions>
<speed>0.0</speed>
<temp>0.00</temp>
<bpm>0</bpm>
<rpm>0.00</rpm>
</extensions>
</trkpt>
<trkpt lat="64.146469116" lon="-21.929800034">
<ele>19.3</ele>
<time>2012-07-28T22:57:24Z</time>
<speed>0.330000</speed>
<extensions>
<speed>0.3</speed>
<temp>0.00</temp>
<bpm>0</bpm>
<rpm>0.00</rpm>
</extensions>
</trkpt>
<trkpt lat="64.146141052" lon="-21.929737091">
<ele>23.0</ele>
<time>2012-07-28T23:01:39Z</time>
<speed>0.250000</speed>
<extensions>
<speed>0.2</speed>
<temp>0.00</temp>
<bpm>0</bpm>
<rpm>0.00</rpm>
</extensions>
</trkpt>
<trkpt lat="64.146263123" lon="-21.930702209">
<ele>20.5</ele>
<time>2012-07-28T23:04:09Z</time>
<speed>0.060000</speed>
<extensions>
<speed>0.1</speed>
<temp>0.00</temp>
<bpm>0</bpm>
<rpm>0.00</rpm>
</extensions>
</trkpt>
<trkpt lat="64.146499634" lon="-21.930438995">
<ele>17.5</ele>
<time>2012-07-28T23:04:44Z</time>
<speed>0.400000</speed>
<extensions>
<speed>0.4</speed>
<temp>0.00</temp>
<bpm>0</bpm>
<rpm>0.00</rpm>
</extensions>
</trkpt>
<trkpt lat="64.146591187" lon="-21.930650711">
<ele>18.0</ele>
<time>2012-07-28T23:05:04Z</time>
<speed>0.100000</speed>
<extensions>
<speed>0.1</speed>
<temp>0.00</temp>
<bpm>0</bpm>
<rpm>0.00</rpm>
</extensions>
</trkpt>
<trkpt lat="64.145980835" lon="-21.931165695">
<ele>23.4</ele>
<time>2012-07-28T23:12:41Z</time>
<speed>0.580000</speed>
<extensions>
<speed>0.6</speed>
<temp>0.00</temp>
<bpm>0</bpm>
<rpm>0.00</rpm>
</extensions>
</trkpt>
<trkpt lat="64.145874023" lon="-21.930736542">
<ele>24.0</ele>
<time>2012-07-28T23:12:46Z</time>
<speed>0.660000</speed>
<extensions>
<speed>0.7</speed>
<temp>0.00</temp>
<bpm>0</bpm>
<rpm>0.00</rpm>
</extensions>
</trkpt>
<trkpt lat="64.145942688" lon="-21.929887772">
<ele>21.8</ele>
<time>2012-07-28T23:13:06Z</time>
<speed>0.530000</speed>
<extensions>
<speed>0.5</speed>
<temp>0.00</temp>
<bpm>0</bpm>
<rpm>0.00</rpm>
</extensions>
</trkpt>
<trkpt lat="64.146301270" lon="-21.929542542">
<ele>22.7</ele>
<time>2012-07-28T23:13:31Z</time>
<speed>1.140000</speed>
<extensions>
<speed>1.1</speed>
<temp>0.00</temp>
<bpm>0</bpm>
<rpm>0.00</rpm>
</extensions>
</trkpt>
<trkpt lat="64.146209717" lon="-21.929504395">
<ele>23.5</ele>
<time>2012-07-28T23:13:46Z</time>
<speed>0.460000</speed>
<extensions>
<speed>0.5</speed>
<temp>0.00</temp>
<bpm>0</bpm>
<rpm>0.00</rpm>
</extensions>
</trkpt>
<trkpt lat="64.146286011" lon="-21.929859161">
<ele>23.0</ele>
<time>2012-07-28T23:14:21Z</time>
<speed>0.750000</speed>
<extensions>
<speed>0.8</speed>
<temp>0.00</temp>
<bpm>0</bpm>
<rpm>0.00</rpm>
</extensions>
</trkpt>
<trkpt lat="64.146133423" lon="-21.930379868">
<ele>21.6</ele>
<time>2012-07-28T23:14:36Z</time>
<speed>2.750000</speed>
<extensions>
<speed>2.7</speed>
<temp>0.00</temp>
<bpm>0</bpm>
<rpm>0.00</rpm>
</extensions>
</trkpt>
<trkpt lat="64.145996094" lon="-21.929716110">
<ele>21.9</ele>
<time>2012-07-28T23:16:00Z</time>
<speed>1.700000</speed>
<extensions>
<speed>1.7</speed>
<temp>0.00</temp>
<bpm>0</bpm>
<rpm>0.00</rpm>
</extensions>
</trkpt>
<trkpt lat="64.146339417" lon="-21.930015564">
<ele>21.0</ele>
<time>2012-07-28T23:16:30Z</time>
<speed>1.060000</speed>
<extensions>
<speed>1.1</speed>
<temp>0.00</temp>
<bpm>0</bpm>
<rpm>0.00</rpm>
</extensions>
</trkpt>
<trkpt lat="64.146316528" lon="-21.930421829">
<ele>19.8</ele>
<time>2012-07-28T23:17:05Z</time>
<speed>1.650000</speed>
<extensions>
<speed>1.7</speed>
<temp>0.00</temp>
<bpm>0</bpm>
<rpm>0.00</rpm>
</extensions>
</trkpt>
<trkpt lat="64.146400452" lon="-21.930215836">
<ele>18.8</ele>
<time>2012-07-28T23:17:30Z</time>
<speed>1.590000</speed>
<extensions>
<speed>1.6</speed>
<temp>0.00</temp>
<bpm>0</bpm>
<rpm>0.00</rpm>
</extensions>
</trkpt>
<trkpt lat="64.146705627" lon="-21.930843353">
<ele>20.0</ele>
<time>2012-07-28T23:18:05Z</time>
<speed>1.830000</speed>
<extensions>
<speed>1.8</speed>
<temp>0.00</temp>
<bpm>0</bpm>
<rpm>0.00</rpm>
</extensions>
</trkpt>
<trkpt lat="64.146804810" lon="-21.930599213">
<ele>17.8</ele>
<time>2012-07-28T23:18:15Z</time>
<speed>1.380000</speed>
<extensions>
<speed>1.4</speed>
<temp>0.00</temp>
<bpm>0</bpm>
<rpm>0.00</rpm>
</extensions>
</trkpt>
<trkpt lat="64.146720886" lon="-21.930301666">
<ele>15.9</ele>
<time>2012-07-28T23:18:30Z</time>
<speed>0.700000</speed>
<extensions>
<speed>0.7</speed>
<temp>0.00</temp>
<bpm>0</bpm>
<rpm>0.00</rpm>
</extensions>
</trkpt>
<trkpt lat="64.146125793" lon="-21.930315018">
<ele>21.5</ele>
<time>2012-07-28T23:19:00Z</time>
<speed>0.840000</speed>
<extensions>
<speed>0.8</speed>
<temp>0.00</temp>
<bpm>0</bpm>
<rpm>0.00</rpm>
</extensions>
</trkpt>
<trkpt lat="64.146308899" lon="-21.930353165">
<ele>19.9</ele>
<time>2012-07-28T23:19:30Z</time>
<speed>0.510000</speed>
<extensions>
<speed>0.5</speed>
<temp>0.00</temp>
<bpm>0</bpm>
<rpm>0.00</rpm>
</extensions>
</trkpt>
<trkpt lat="64.146156311" lon="-21.930776596">
<ele>21.9</ele>
<time>2012-07-28T23:20:05Z</time>
<speed>2.420000</speed>
<extensions>
<speed>2.4</speed>
<temp>0.00</temp>
<bpm>0</bpm>
<rpm>0.00</rpm>
</extensions>
</trkpt>
<trkpt lat="64.146430969" lon="-21.930572510">
<ele>18.7</ele>
<time>2012-07-28T23:20:35Z</time>
<speed>1.700000</speed>
<extensions>
<speed>1.7</speed>
<temp>0.00</temp>
<bpm>0</bpm>
<rpm>0.00</rpm>
</extensions>
</trkpt>
<trkpt lat="64.146926880" lon="-21.930805206">
<ele>17.3</ele>
<time>2012-07-28T23:22:00Z</time>
<speed>1.450000</speed>
<extensions>
<speed>1.4</speed>
<temp>0.00</temp>
<bpm>0</bpm>
<rpm>0.00</rpm>
</extensions>
</trkpt>
<trkpt lat="64.145957947" lon="-21.931030273">
<ele>23.6</ele>
<time>2012-07-28T23:23:25Z</time>
<speed>0.770000</speed>
<extensions>
<speed>0.8</speed>
<temp>0.00</temp>
<bpm>0</bpm>
<rpm>0.00</rpm>
</extensions>
</trkpt>
<trkpt lat="64.146202087" lon="-21.929639816">
<ele>23.4</ele>
<time>2012-07-28T23:26:35Z</time>
<speed>0.210000</speed>
<extensions>
<speed>0.2</speed>
<temp>0.00</temp>
<bpm>0</bpm>
<rpm>0.00</rpm>
</extensions>
</trkpt>
<trkpt lat="64.146247864" lon="-21.929992676">
<ele>22.8</ele>
<time>2012-07-28T23:27:40Z</time>
<speed>0.700000</speed>
<extensions>
<speed>0.7</speed>
<temp>0.00</temp>
<bpm>0</bpm>
<rpm>0.00</rpm>
</extensions>
</trkpt>
<trkpt lat="64.146110535" lon="-21.930278778">
<ele>21.6</ele>
<time>2012-07-28T23:28:30Z</time>
<speed>0.910000</speed>
<extensions>
<speed>0.9</speed>
<temp>0.00</temp>
<bpm>0</bpm>
<rpm>0.00</rpm>
</extensions>
</trkpt>
<trkpt lat="64.146324158" lon="-21.930036545">
<ele>21.1</ele>
<time>2012-07-28T23:29:35Z</time>
<speed>0.800000</speed>
<extensions>
<speed>0.8</speed>
<temp>0.00</temp>
<bpm>0</bpm>
<rpm>0.00</rpm>
</extensions>
</trkpt>
<trkpt lat="64.146324158" lon="-21.929666519">
<ele>22.2</ele>
<time>2012-07-28T23:29:50Z</time>
<speed>0.870000</speed>
<extensions>
<speed>0.9</speed>
<temp>0.00</temp>
<bpm>0</bpm>
<rpm>0.00</rpm>
</extensions>
</trkpt>
<trkpt lat="64.146232605" lon="-21.929845810">
<ele>23.6</ele>
<time>2012-07-28T23:30:05Z</time>
<speed>0.510000</speed>
<extensions>
<speed>0.5</speed>
<temp>0.00</temp>
<bpm>0</bpm>
<rpm>0.00</rpm>
</extensions>
</trkpt>
<trkpt lat="64.146255493" lon="-21.930341721">
<ele>20.6</ele>
<time>2012-07-28T23:31:00Z</time>
<speed>0.360000</speed>
<extensions>
<speed>0.4</speed>
<temp>0.00</temp>
<bpm>0</bpm>
<rpm>0.00</rpm>
</extensions>
</trkpt>
<trkpt lat="64.146347046" lon="-21.930263519">
<ele>19.4</ele>
<time>2012-07-28T23:31:10Z</time>
<speed>1.060000</speed>
<extensions>
<speed>1.1</speed>
<temp>0.00</temp>
<bpm>0</bpm>
<rpm>0.00</rpm>
</extensions>
</trkpt>
</trkseg>
</trk>
</gpx>